VSV715 UACC-UAAA
Flight info
| Callsign | VSV715 |
|---|---|
| Flight time | 1h 24m |
| Altitude | 37000 |
| Route | BANOS1A BANOS W333 ETEDA ETEDA1P |
| Aircraft | B738/M-SDE2E3FGHIRWXY/LB1 |
Departure
| Time | 2026-05-06 13:44 |
|---|---|
| Airport | Nursultan Nazarbayev International Airport (UACC) |
Arrival
| Time | 2026-05-06 15:08 |
|---|---|
| Airport | Almaty International Airport (UAAA) |
| Time | Latitude | Longitude | Altitude | Speed | Heading |
|---|---|---|---|---|---|
| 2026-05-06 13:21 | 51.02667 | 71.46222 | 1163 ft | 0 kts | 315° |
| 2026-05-06 13:30 | 51.02659 | 71.46235 | 1160 ft | 4 kts | 313° |
| 2026-05-06 13:30 | 51.02641 | 71.46267 | 1161 ft | 4 kts | 304° |
| 2026-05-06 13:30 | 51.02628 | 71.46304 | 1159 ft | 4 kts | 290° |
| 2026-05-06 13:30 | 51.02623 | 71.46343 | 1160 ft | 3 kts | 260° |
| 2026-05-06 13:31 | 51.02624 | 71.46348 | 1160 ft | 2 kts | 258° |
| 2026-05-06 13:35 | 51.02623 | 71.46345 | 1160 ft | 1 kts | 258° |
| 2026-05-06 13:35 | 51.02621 | 71.46328 | 1158 ft | 2 kts | 257° |
| 2026-05-06 13:35 | 51.02611 | 71.46296 | 1160 ft | 4 kts | 239° |
| 2026-05-06 13:35 | 51.02594 | 71.46256 | 1162 ft | 5 kts | 222° |
| 2026-05-06 13:36 | 51.02565 | 71.46215 | 1163 ft | 6 kts | 222° |
| 2026-05-06 13:36 | 51.02529 | 71.46163 | 1163 ft | 8 kts | 222° |
| 2026-05-06 13:36 | 51.02486 | 71.46105 | 1162 ft | 9 kts | 213° |
| 2026-05-06 13:36 | 51.02431 | 71.46116 | 1163 ft | 9 kts | 140° |
| 2026-05-06 13:37 | 51.02385 | 71.46186 | 1163 ft | 9 kts | 136° |
| 2026-05-06 13:37 | 51.02332 | 71.46248 | 1163 ft | 10 kts | 175° |
| 2026-05-06 13:37 | 51.02279 | 71.46182 | 1163 ft | 10 kts | 224° |
| 2026-05-06 13:37 | 51.02225 | 71.46099 | 1163 ft | 11 kts | 224° |
| 2026-05-06 13:38 | 51.02166 | 71.46009 | 1163 ft | 12 kts | 223° |
| 2026-05-06 13:38 | 51.02105 | 71.45922 | 1163 ft | 12 kts | 224° |
| 2026-05-06 13:38 | 51.02044 | 71.45827 | 1163 ft | 13 kts | 224° |
| 2026-05-06 13:38 | 51.01978 | 71.45727 | 1163 ft | 13 kts | 224° |
| 2026-05-06 13:39 | 51.01908 | 71.45621 | 1160 ft | 14 kts | 224° |
| 2026-05-06 13:39 | 51.01838 | 71.45510 | 1163 ft | 14 kts | 225° |
| 2026-05-06 13:39 | 51.01772 | 71.45405 | 1162 ft | 13 kts | 225° |
| 2026-05-06 13:39 | 51.01708 | 71.45303 | 1163 ft | 13 kts | 225° |
| 2026-05-06 13:40 | 51.01642 | 71.45197 | 1163 ft | 14 kts | 225° |
| 2026-05-06 13:40 | 51.01575 | 71.45095 | 1163 ft | 13 kts | 223° |
| 2026-05-06 13:40 | 51.01507 | 71.44992 | 1163 ft | 14 kts | 224° |
| 2026-05-06 13:40 | 51.01441 | 71.44885 | 1163 ft | 14 kts | 226° |
| 2026-05-06 13:41 | 51.01370 | 71.44771 | 1163 ft | 15 kts | 224° |
| 2026-05-06 13:41 | 51.01284 | 71.44705 | 1162 ft | 14 kts | 171° |
| 2026-05-06 13:41 | 51.01204 | 71.44791 | 1162 ft | 14 kts | 137° |
| 2026-05-06 13:41 | 51.01162 | 71.44878 | 1161 ft | 7 kts | 119° |
| 2026-05-06 13:42 | 51.01160 | 71.44888 | 1163 ft | 1 kts | 107° |
| 2026-05-06 13:42 | 51.01160 | 71.44894 | 1163 ft | 1 kts | 89° |
| 2026-05-06 13:42 | 51.01162 | 71.44904 | 1164 ft | 1 kts | 69° |
| 2026-05-06 13:42 | 51.01181 | 71.44943 | 1164 ft | 0 kts | 45° |
| 2026-05-06 13:43 | 51.01182 | 71.44943 | 1164 ft | 1 kts | 45° |
| 2026-05-06 13:43 | 51.01262 | 71.45068 | 1166 ft | 52 kts | 44° |
| 2026-05-06 13:43 | 51.01716 | 71.45775 | 1164 ft | 129 kts | 45° |
| 2026-05-06 13:43 | 51.02493 | 71.47026 | 1311 ft | 180 kts | 46° |
| 2026-05-06 13:44 | 51.03407 | 71.48514 | 2105 ft | 196 kts | 46° |
| 2026-05-06 13:44 | 51.04294 | 71.50283 | 2701 ft | 219 kts | 63° |
| 2026-05-06 13:44 | 51.04524 | 71.52826 | 2999 ft | 248 kts | 98° |
| 2026-05-06 13:44 | 51.03934 | 71.55460 | 3504 ft | 254 kts | 121° |
| 2026-05-06 13:45 | 51.02873 | 71.57585 | 4490 ft | 237 kts | 131° |
| 2026-05-06 13:45 | 51.01043 | 71.61788 | 5796 ft | 238 kts | 122° |
| 2026-05-06 13:45 | 51.00249 | 71.64143 | 6276 ft | 244 kts | 120° |
| 2026-05-06 13:46 | 50.99480 | 71.66604 | 6739 ft | 252 kts | 120° |
| 2026-05-06 13:46 | 50.98723 | 71.69089 | 7295 ft | 253 kts | 122° |
| 2026-05-06 13:46 | 50.97614 | 71.71216 | 7727 ft | 255 kts | 146° |
| 2026-05-06 13:46 | 50.96138 | 71.73013 | 7917 ft | 280 kts | 148° |
| 2026-05-06 13:47 | 50.94536 | 71.74905 | 8435 ft | 291 kts | 148° |
| 2026-05-06 13:47 | 50.92896 | 71.76851 | 9158 ft | 296 kts | 148° |
| 2026-05-06 13:47 | 50.91235 | 71.78832 | 9899 ft | 300 kts | 148° |
| 2026-05-06 13:47 | 50.89568 | 71.80828 | 10418 ft | 312 kts | 148° |
| 2026-05-06 13:48 | 50.87768 | 71.82980 | 10582 ft | 336 kts | 147° |
| 2026-05-06 13:48 | 50.85842 | 71.85292 | 10844 ft | 354 kts | 147° |
| 2026-05-06 13:48 | 50.83857 | 71.87686 | 11403 ft | 362 kts | 147° |
| 2026-05-06 13:48 | 50.81845 | 71.90112 | 12095 ft | 365 kts | 147° |
| 2026-05-06 13:49 | 50.79809 | 71.92558 | 12806 ft | 368 kts | 147° |
| 2026-05-06 13:49 | 50.77774 | 71.94995 | 13447 ft | 373 kts | 147° |
| 2026-05-06 13:49 | 50.75685 | 71.97493 | 14085 ft | 377 kts | 147° |
| 2026-05-06 13:49 | 50.73579 | 72.00008 | 14664 ft | 382 kts | 147° |
| 2026-05-06 13:50 | 50.71446 | 72.02552 | 15245 ft | 386 kts | 147° |
| 2026-05-06 13:50 | 50.69290 | 72.05123 | 15818 ft | 390 kts | 146° |
| 2026-05-06 13:50 | 50.67104 | 72.07728 | 16386 ft | 395 kts | 146° |
| 2026-05-06 13:50 | 50.64897 | 72.10355 | 16944 ft | 399 kts | 146° |
| 2026-05-06 13:51 | 50.62698 | 72.12969 | 17485 ft | 404 kts | 146° |
| 2026-05-06 13:51 | 50.60443 | 72.15646 | 18023 ft | 408 kts | 146° |
| 2026-05-06 13:51 | 50.58157 | 72.18359 | 18553 ft | 412 kts | 146° |
| 2026-05-06 13:51 | 50.55855 | 72.21086 | 19064 ft | 415 kts | 146° |
| 2026-05-06 13:52 | 50.53536 | 72.23831 | 19605 ft | 417 kts | 146° |
| 2026-05-06 13:52 | 50.51211 | 72.26578 | 20127 ft | 419 kts | 146° |
| 2026-05-06 13:52 | 50.48867 | 72.29345 | 20604 ft | 422 kts | 146° |
| 2026-05-06 13:52 | 50.46534 | 72.32094 | 21102 ft | 425 kts | 147° |
| 2026-05-06 13:53 | 50.44157 | 72.34893 | 21595 ft | 428 kts | 147° |
| 2026-05-06 13:53 | 50.41765 | 72.37704 | 22073 ft | 431 kts | 147° |
| 2026-05-06 13:53 | 50.39357 | 72.40532 | 22549 ft | 433 kts | 147° |
| 2026-05-06 13:53 | 50.36957 | 72.43346 | 23015 ft | 436 kts | 147° |
| 2026-05-06 13:54 | 50.34511 | 72.46211 | 23481 ft | 439 kts | 147° |
| 2026-05-06 13:54 | 50.32053 | 72.49085 | 23882 ft | 441 kts | 147° |
| 2026-05-06 13:54 | 50.29586 | 72.51967 | 24254 ft | 444 kts | 147° |
| 2026-05-06 13:54 | 50.27105 | 72.54863 | 24620 ft | 446 kts | 147° |
| 2026-05-06 13:55 | 50.24607 | 72.57775 | 24984 ft | 448 kts | 147° |
| 2026-05-06 13:55 | 50.22131 | 72.60658 | 25345 ft | 450 kts | 147° |
| 2026-05-06 13:55 | 50.19608 | 72.63588 | 25696 ft | 453 kts | 147° |
| 2026-05-06 13:55 | 50.17122 | 72.66662 | 26033 ft | 457 kts | 142° |
| 2026-05-06 13:56 | 50.14758 | 72.70017 | 26369 ft | 461 kts | 139° |
| 2026-05-06 13:56 | 50.12445 | 72.73506 | 26696 ft | 464 kts | 138° |
| 2026-05-06 13:56 | 50.10162 | 72.77001 | 27017 ft | 466 kts | 138° |
| 2026-05-06 13:56 | 50.07837 | 72.80535 | 27348 ft | 468 kts | 139° |
| 2026-05-06 13:57 | 50.05485 | 72.84059 | 27647 ft | 470 kts | 139° |
| 2026-05-06 13:57 | 50.03112 | 72.87571 | 27947 ft | 472 kts | 139° |
| 2026-05-06 13:57 | 50.00710 | 72.91094 | 28247 ft | 475 kts | 139° |
| 2026-05-06 13:57 | 49.98296 | 72.94617 | 28553 ft | 476 kts | 139° |
| 2026-05-06 13:58 | 49.95864 | 72.98157 | 28847 ft | 478 kts | 139° |
| 2026-05-06 13:58 | 49.93425 | 73.01701 | 29124 ft | 481 kts | 139° |
| 2026-05-06 13:58 | 49.90998 | 73.05226 | 29399 ft | 483 kts | 139° |
| 2026-05-06 13:58 | 49.88535 | 73.08800 | 29674 ft | 485 kts | 139° |
| 2026-05-06 13:59 | 49.86068 | 73.12375 | 29952 ft | 487 kts | 139° |
| 2026-05-06 13:59 | 49.83586 | 73.15967 | 30176 ft | 489 kts | 139° |
| 2026-05-06 13:59 | 49.81119 | 73.19534 | 30373 ft | 491 kts | 139° |
| 2026-05-06 13:59 | 49.78616 | 73.23147 | 30584 ft | 493 kts | 139° |
| 2026-05-06 14:00 | 49.76104 | 73.26769 | 30837 ft | 493 kts | 139° |
| 2026-05-06 14:00 | 49.73593 | 73.30383 | 31112 ft | 493 kts | 139° |
| 2026-05-06 14:00 | 49.71059 | 73.33982 | 31336 ft | 494 kts | 142° |
| 2026-05-06 14:00 | 49.68298 | 73.37145 | 31525 ft | 493 kts | 150° |
| 2026-05-06 14:01 | 49.65288 | 73.39667 | 31753 ft | 490 kts | 160° |
| 2026-05-06 14:01 | 49.62120 | 73.41604 | 32010 ft | 489 kts | 162° |
| 2026-05-06 14:01 | 49.58965 | 73.43442 | 32214 ft | 490 kts | 163° |
| 2026-05-06 14:01 | 49.55760 | 73.45297 | 32423 ft | 491 kts | 162° |
| 2026-05-06 14:02 | 49.52558 | 73.47166 | 32644 ft | 492 kts | 162° |
| 2026-05-06 14:02 | 49.49347 | 73.49064 | 32865 ft | 493 kts | 162° |
| 2026-05-06 14:02 | 49.46176 | 73.50955 | 33072 ft | 495 kts | 162° |
| 2026-05-06 14:02 | 49.42959 | 73.52882 | 33261 ft | 496 kts | 162° |
| 2026-05-06 14:03 | 49.39741 | 73.54814 | 33481 ft | 496 kts | 162° |
| 2026-05-06 14:03 | 49.36515 | 73.56748 | 33690 ft | 497 kts | 162° |
| 2026-05-06 14:03 | 49.33316 | 73.58663 | 33922 ft | 498 kts | 162° |
| 2026-05-06 14:03 | 49.30082 | 73.60595 | 34117 ft | 499 kts | 162° |
| 2026-05-06 14:04 | 49.26831 | 73.62532 | 34330 ft | 498 kts | 162° |
| 2026-05-06 14:04 | 49.23603 | 73.64454 | 34629 ft | 496 kts | 161° |
| 2026-05-06 14:04 | 49.20392 | 73.66363 | 34943 ft | 493 kts | 161° |
| 2026-05-06 14:04 | 49.17238 | 73.68235 | 35198 ft | 491 kts | 161° |
| 2026-05-06 14:05 | 49.14049 | 73.70123 | 35401 ft | 491 kts | 161° |
| 2026-05-06 14:05 | 49.10858 | 73.72011 | 35594 ft | 491 kts | 161° |
| 2026-05-06 14:05 | 49.07678 | 73.73889 | 35835 ft | 489 kts | 161° |
| 2026-05-06 14:05 | 49.04504 | 73.75763 | 36090 ft | 487 kts | 161° |
| 2026-05-06 14:06 | 49.01335 | 73.77632 | 36348 ft | 485 kts | 161° |
| 2026-05-06 14:06 | 48.98221 | 73.79464 | 36591 ft | 484 kts | 161° |
| 2026-05-06 14:06 | 48.95080 | 73.81304 | 36796 ft | 483 kts | 161° |
| 2026-05-06 14:06 | 48.91937 | 73.83139 | 36957 ft | 483 kts | 161° |
| 2026-05-06 14:07 | 48.85645 | 73.86801 | 37063 ft | 483 kts | 161° |
| 2026-05-06 14:07 | 48.79395 | 73.90432 | 37076 ft | 483 kts | 161° |
| 2026-05-06 14:08 | 48.73106 | 73.94078 | 37066 ft | 483 kts | 161° |
| 2026-05-06 14:08 | 48.66820 | 73.97714 | 37078 ft | 483 kts | 161° |
| 2026-05-06 14:09 | 48.60568 | 74.01320 | 37066 ft | 483 kts | 161° |
| 2026-05-06 14:09 | 48.54284 | 74.04934 | 37070 ft | 482 kts | 161° |
| 2026-05-06 14:10 | 48.48032 | 74.08521 | 37076 ft | 482 kts | 160° |
| 2026-05-06 14:10 | 48.41735 | 74.12124 | 37072 ft | 482 kts | 160° |
| 2026-05-06 14:11 | 48.35492 | 74.15687 | 37074 ft | 482 kts | 160° |
| 2026-05-06 14:11 | 48.29200 | 74.19269 | 37070 ft | 482 kts | 160° |
| 2026-05-06 14:12 | 48.22963 | 74.22810 | 37076 ft | 481 kts | 161° |
| 2026-05-06 14:12 | 48.16689 | 74.26364 | 37069 ft | 481 kts | 161° |
| 2026-05-06 14:13 | 48.10433 | 74.29906 | 37066 ft | 480 kts | 160° |
| 2026-05-06 14:13 | 48.04197 | 74.33470 | 37070 ft | 479 kts | 160° |
| 2026-05-06 14:14 | 47.98014 | 74.37001 | 37063 ft | 478 kts | 160° |
| 2026-05-06 14:14 | 47.91774 | 74.40552 | 37068 ft | 477 kts | 160° |
| 2026-05-06 14:15 | 47.85609 | 74.44048 | 37064 ft | 476 kts | 160° |
| 2026-05-06 14:15 | 47.79416 | 74.47551 | 37071 ft | 475 kts | 160° |
| 2026-05-06 14:16 | 47.73235 | 74.51039 | 37066 ft | 474 kts | 160° |
| 2026-05-06 14:16 | 47.67064 | 74.54512 | 37070 ft | 473 kts | 160° |
| 2026-05-06 14:17 | 47.60941 | 74.57950 | 37069 ft | 472 kts | 160° |
| 2026-05-06 14:17 | 47.54794 | 74.61394 | 37064 ft | 471 kts | 160° |
| 2026-05-06 14:18 | 47.48684 | 74.64820 | 37067 ft | 470 kts | 160° |
| 2026-05-06 14:18 | 47.42569 | 74.68256 | 37067 ft | 470 kts | 160° |
| 2026-05-06 14:19 | 47.36450 | 74.71689 | 37065 ft | 469 kts | 160° |
| 2026-05-06 14:19 | 47.30372 | 74.75088 | 37065 ft | 469 kts | 160° |
| 2026-05-06 14:20 | 47.24262 | 74.78495 | 37070 ft | 469 kts | 160° |
| 2026-05-06 14:20 | 47.18192 | 74.81871 | 37066 ft | 468 kts | 160° |
| 2026-05-06 14:21 | 47.12082 | 74.85262 | 37069 ft | 468 kts | 160° |
| 2026-05-06 14:21 | 47.06003 | 74.88627 | 37079 ft | 468 kts | 160° |
| 2026-05-06 14:22 | 46.99882 | 74.92008 | 37078 ft | 469 kts | 160° |
| 2026-05-06 14:22 | 46.93763 | 74.95380 | 37077 ft | 469 kts | 160° |
| 2026-05-06 14:23 | 46.87688 | 74.98723 | 37070 ft | 469 kts | 160° |
| 2026-05-06 14:23 | 46.81662 | 75.02431 | 37079 ft | 469 kts | 157° |
| 2026-05-06 14:24 | 46.75690 | 75.06323 | 37073 ft | 469 kts | 157° |
| 2026-05-06 14:24 | 46.69734 | 75.10154 | 37075 ft | 469 kts | 157° |
| 2026-05-06 14:25 | 46.63775 | 75.13927 | 37073 ft | 469 kts | 158° |
| 2026-05-06 14:25 | 46.57769 | 75.17706 | 37069 ft | 468 kts | 158° |
| 2026-05-06 14:26 | 46.51780 | 75.21466 | 37066 ft | 468 kts | 158° |
| 2026-05-06 14:26 | 46.45825 | 75.25198 | 37062 ft | 468 kts | 158° |
| 2026-05-06 14:27 | 46.39830 | 75.28947 | 37061 ft | 468 kts | 158° |
| 2026-05-06 14:27 | 46.33882 | 75.32658 | 37062 ft | 468 kts | 158° |
| 2026-05-06 14:28 | 46.27919 | 75.36370 | 37051 ft | 468 kts | 158° |
| 2026-05-06 14:28 | 46.21922 | 75.40094 | 37054 ft | 468 kts | 158° |
| 2026-05-06 14:29 | 46.15940 | 75.43821 | 37046 ft | 467 kts | 158° |
| 2026-05-06 14:29 | 46.09995 | 75.47530 | 37048 ft | 467 kts | 158° |
| 2026-05-06 14:30 | 46.04010 | 75.51254 | 37038 ft | 467 kts | 158° |
| 2026-05-06 14:30 | 45.98069 | 75.54940 | 37038 ft | 467 kts | 158° |
| 2026-05-06 14:31 | 45.92100 | 75.58634 | 37039 ft | 468 kts | 158° |
| 2026-05-06 14:31 | 45.87115 | 75.61713 | 37036 ft | 468 kts | 158° |
| 2026-05-06 14:32 | 45.81128 | 75.65403 | 37035 ft | 468 kts | 158° |
| 2026-05-06 14:32 | 45.75135 | 75.69089 | 37033 ft | 467 kts | 158° |
| 2026-05-06 14:33 | 45.69177 | 75.72744 | 37032 ft | 467 kts | 158° |
| 2026-05-06 14:33 | 45.63195 | 75.76403 | 37030 ft | 467 kts | 158° |
| 2026-05-06 14:34 | 45.57208 | 75.80059 | 37031 ft | 467 kts | 158° |
| 2026-05-06 14:34 | 45.51241 | 75.83695 | 37024 ft | 467 kts | 158° |
| 2026-05-06 14:35 | 45.45256 | 75.87335 | 37024 ft | 467 kts | 158° |
| 2026-05-06 14:35 | 45.39267 | 75.90968 | 37026 ft | 467 kts | 158° |
| 2026-05-06 14:36 | 45.33302 | 75.94578 | 37024 ft | 467 kts | 158° |
| 2026-05-06 14:36 | 45.27318 | 75.98192 | 37020 ft | 467 kts | 158° |
| 2026-05-06 14:37 | 45.21370 | 76.01776 | 37024 ft | 466 kts | 158° |
| 2026-05-06 14:37 | 45.15393 | 76.05368 | 37024 ft | 466 kts | 158° |
| 2026-05-06 14:38 | 45.09408 | 76.08958 | 37021 ft | 466 kts | 158° |
| 2026-05-06 14:38 | 45.03431 | 76.12535 | 36911 ft | 467 kts | 158° |
| 2026-05-06 14:39 | 45.00449 | 76.14315 | 36398 ft | 472 kts | 158° |
| 2026-05-06 14:39 | 44.97434 | 76.16114 | 35869 ft | 469 kts | 158° |
| 2026-05-06 14:39 | 44.94430 | 76.17905 | 35483 ft | 464 kts | 158° |
| 2026-05-06 14:39 | 44.91469 | 76.19668 | 35057 ft | 460 kts | 158° |
| 2026-05-06 14:40 | 44.88519 | 76.21423 | 34646 ft | 457 kts | 158° |
| 2026-05-06 14:40 | 44.85597 | 76.23159 | 34236 ft | 453 kts | 158° |
| 2026-05-06 14:40 | 44.82734 | 76.24857 | 33798 ft | 450 kts | 158° |
| 2026-05-06 14:40 | 44.79856 | 76.26564 | 33342 ft | 446 kts | 158° |
| 2026-05-06 14:41 | 44.76999 | 76.28255 | 32922 ft | 442 kts | 158° |
| 2026-05-06 14:41 | 44.74164 | 76.29932 | 32517 ft | 438 kts | 158° |
| 2026-05-06 14:41 | 44.71366 | 76.31586 | 32112 ft | 434 kts | 158° |
| 2026-05-06 14:41 | 44.68628 | 76.33202 | 31722 ft | 430 kts | 158° |
| 2026-05-06 14:42 | 44.65873 | 76.34826 | 31331 ft | 426 kts | 158° |
| 2026-05-06 14:42 | 44.63148 | 76.36431 | 30951 ft | 423 kts | 159° |
| 2026-05-06 14:42 | 44.60443 | 76.38023 | 30567 ft | 419 kts | 159° |
| 2026-05-06 14:42 | 44.57759 | 76.39601 | 30192 ft | 416 kts | 159° |
| 2026-05-06 14:43 | 44.55126 | 76.41147 | 29776 ft | 413 kts | 159° |
| 2026-05-06 14:43 | 44.52487 | 76.42695 | 29362 ft | 408 kts | 159° |
| 2026-05-06 14:43 | 44.49870 | 76.44229 | 28980 ft | 404 kts | 159° |
| 2026-05-06 14:43 | 44.47292 | 76.45739 | 28601 ft | 400 kts | 159° |
| 2026-05-06 14:44 | 44.44740 | 76.47232 | 28201 ft | 396 kts | 159° |
| 2026-05-06 14:44 | 44.42203 | 76.48716 | 27832 ft | 392 kts | 159° |
| 2026-05-06 14:44 | 44.39691 | 76.50182 | 27444 ft | 389 kts | 159° |
| 2026-05-06 14:45 | 44.34592 | 76.51921 | 26730 ft | 374 kts | 188° |
| 2026-05-06 14:45 | 44.32081 | 76.51116 | 26437 ft | 365 kts | 204° |
| 2026-05-06 14:45 | 44.29918 | 76.49410 | 26092 ft | 359 kts | 217° |
| 2026-05-06 14:45 | 44.27906 | 76.47347 | 25742 ft | 356 kts | 219° |
| 2026-05-06 14:46 | 44.25943 | 76.45254 | 25382 ft | 354 kts | 219° |
| 2026-05-06 14:46 | 44.23989 | 76.43166 | 25026 ft | 352 kts | 219° |
| 2026-05-06 14:46 | 44.22067 | 76.41128 | 24677 ft | 351 kts | 219° |
| 2026-05-06 14:46 | 44.20114 | 76.39077 | 24324 ft | 349 kts | 219° |
| 2026-05-06 14:47 | 44.18174 | 76.37051 | 23975 ft | 348 kts | 219° |
| 2026-05-06 14:47 | 44.16229 | 76.35031 | 23616 ft | 347 kts | 218° |
| 2026-05-06 14:47 | 44.14315 | 76.33048 | 23216 ft | 346 kts | 218° |
| 2026-05-06 14:47 | 44.12381 | 76.31046 | 22836 ft | 344 kts | 218° |
| 2026-05-06 14:48 | 44.10459 | 76.29059 | 22468 ft | 342 kts | 218° |
| 2026-05-06 14:48 | 44.08559 | 76.27095 | 22111 ft | 339 kts | 218° |
| 2026-05-06 14:48 | 44.06690 | 76.25167 | 21766 ft | 337 kts | 218° |
| 2026-05-06 14:48 | 44.04806 | 76.23225 | 21415 ft | 335 kts | 218° |
| 2026-05-06 14:49 | 44.02895 | 76.21377 | 21058 ft | 335 kts | 208° |
| 2026-05-06 14:49 | 44.00664 | 76.20434 | 20719 ft | 336 kts | 187° |
| 2026-05-06 14:49 | 43.98357 | 76.20623 | 20410 ft | 337 kts | 170° |
| 2026-05-06 14:49 | 43.96073 | 76.21344 | 20089 ft | 335 kts | 168° |
| 2026-05-06 14:50 | 43.93805 | 76.22096 | 19752 ft | 334 kts | 169° |
| 2026-05-06 14:50 | 43.91518 | 76.22633 | 19392 ft | 330 kts | 184° |
| 2026-05-06 14:50 | 43.89342 | 76.21993 | 19112 ft | 321 kts | 208° |
| 2026-05-06 14:50 | 43.87520 | 76.20241 | 19097 ft | 321 kts | 227° |
| 2026-05-06 14:51 | 43.86188 | 76.17715 | 19062 ft | 329 kts | 245° |
| 2026-05-06 14:51 | 43.85214 | 76.14815 | 19051 ft | 334 kts | 247° |
| 2026-05-06 14:51 | 43.84281 | 76.11899 | 19032 ft | 333 kts | 247° |
| 2026-05-06 14:51 | 43.83254 | 76.09039 | 19025 ft | 333 kts | 236° |
| 2026-05-06 14:52 | 43.81649 | 76.06705 | 19060 ft | 335 kts | 223° |
| 2026-05-06 14:52 | 43.79877 | 76.04575 | 19044 ft | 337 kts | 223° |
| 2026-05-06 14:52 | 43.78093 | 76.02437 | 19046 ft | 338 kts | 223° |
| 2026-05-06 14:52 | 43.76322 | 76.00287 | 19038 ft | 339 kts | 223° |
| 2026-05-06 14:53 | 43.74521 | 75.98234 | 19035 ft | 341 kts | 214° |
| 2026-05-06 14:53 | 43.72333 | 75.96930 | 19066 ft | 343 kts | 200° |
| 2026-05-06 14:53 | 43.70042 | 75.95958 | 19046 ft | 345 kts | 195° |
| 2026-05-06 14:53 | 43.67640 | 75.95802 | 19047 ft | 349 kts | 172° |
| 2026-05-06 14:54 | 43.65351 | 75.96926 | 19048 ft | 352 kts | 149° |
| 2026-05-06 14:54 | 43.63481 | 75.99150 | 18622 ft | 362 kts | 126° |
| 2026-05-06 14:54 | 43.62399 | 76.02239 | 18211 ft | 364 kts | 103° |
| 2026-05-06 14:54 | 43.62023 | 76.05699 | 17714 ft | 364 kts | 96° |
| 2026-05-06 14:55 | 43.61784 | 76.09181 | 17222 ft | 364 kts | 95° |
| 2026-05-06 14:55 | 43.61556 | 76.12662 | 16749 ft | 364 kts | 95° |
| 2026-05-06 14:55 | 43.61311 | 76.16149 | 16282 ft | 364 kts | 96° |
| 2026-05-06 14:55 | 43.61046 | 76.19623 | 15823 ft | 364 kts | 96° |
| 2026-05-06 14:56 | 43.60770 | 76.23094 | 15371 ft | 363 kts | 97° |
| 2026-05-06 14:56 | 43.60474 | 76.26552 | 14914 ft | 363 kts | 101° |
| 2026-05-06 14:56 | 43.59603 | 76.29791 | 14446 ft | 360 kts | 123° |
| 2026-05-06 14:56 | 43.57971 | 76.32305 | 14030 ft | 356 kts | 144° |
| 2026-05-06 14:57 | 43.55835 | 76.33960 | 13537 ft | 352 kts | 163° |
| 2026-05-06 14:57 | 43.53479 | 76.34801 | 13090 ft | 348 kts | 169° |
| 2026-05-06 14:57 | 43.51114 | 76.35503 | 12631 ft | 347 kts | 169° |
| 2026-05-06 14:57 | 43.48767 | 76.36256 | 12181 ft | 346 kts | 163° |
| 2026-05-06 14:58 | 43.46665 | 76.37877 | 11707 ft | 348 kts | 141° |
| 2026-05-06 14:58 | 43.44905 | 76.40160 | 11261 ft | 348 kts | 136° |
| 2026-05-06 14:58 | 43.43210 | 76.42462 | 10783 ft | 343 kts | 136° |
| 2026-05-06 14:58 | 43.41522 | 76.44723 | 10313 ft | 334 kts | 137° |
| 2026-05-06 14:59 | 43.39859 | 76.46924 | 9923 ft | 324 kts | 137° |
| 2026-05-06 14:59 | 43.38283 | 76.48995 | 9914 ft | 302 kts | 137° |
| 2026-05-06 14:59 | 43.36806 | 76.50928 | 9864 ft | 283 kts | 137° |
| 2026-05-06 14:59 | 43.35439 | 76.52716 | 9518 ft | 278 kts | 137° |
| 2026-05-06 15:00 | 43.34049 | 76.54532 | 9036 ft | 278 kts | 137° |
| 2026-05-06 15:00 | 43.32650 | 76.56361 | 8636 ft | 275 kts | 137° |
| 2026-05-06 15:00 | 43.31266 | 76.58169 | 8355 ft | 272 kts | 137° |
| 2026-05-06 15:00 | 43.29901 | 76.59951 | 8121 ft | 270 kts | 137° |
| 2026-05-06 15:01 | 43.28560 | 76.61700 | 7884 ft | 267 kts | 137° |
| 2026-05-06 15:01 | 43.27236 | 76.63427 | 7658 ft | 257 kts | 135° |
| 2026-05-06 15:01 | 43.26275 | 76.65400 | 7393 ft | 245 kts | 110° |
| 2026-05-06 15:01 | 43.25828 | 76.67604 | 7138 ft | 234 kts | 103° |
| 2026-05-06 15:02 | 43.25493 | 76.69752 | 6861 ft | 226 kts | 102° |
| 2026-05-06 15:02 | 43.25167 | 76.71846 | 6461 ft | 223 kts | 102° |
| 2026-05-06 15:02 | 43.24839 | 76.73892 | 6177 ft | 215 kts | 103° |
| 2026-05-06 15:02 | 43.24515 | 76.75869 | 5959 ft | 210 kts | 103° |
| 2026-05-06 15:03 | 43.24197 | 76.77796 | 5762 ft | 201 kts | 103° |
| 2026-05-06 15:03 | 43.23896 | 76.79624 | 5566 ft | 193 kts | 101° |
| 2026-05-06 15:03 | 43.24031 | 76.81405 | 5332 ft | 190 kts | 62° |
| 2026-05-06 15:03 | 43.24787 | 76.82880 | 5228 ft | 189 kts | 52° |
| 2026-05-06 15:04 | 43.25560 | 76.84277 | 5145 ft | 184 kts | 54° |
| 2026-05-06 15:04 | 43.26299 | 76.85725 | 4914 ft | 185 kts | 56° |
| 2026-05-06 15:04 | 43.27010 | 76.87168 | 4679 ft | 179 kts | 56° |
| 2026-05-06 15:04 | 43.27682 | 76.88542 | 4484 ft | 169 kts | 57° |
| 2026-05-06 15:05 | 43.28334 | 76.89878 | 4248 ft | 166 kts | 56° |
| 2026-05-06 15:05 | 43.28974 | 76.91189 | 4027 ft | 165 kts | 56° |
| 2026-05-06 15:05 | 43.29617 | 76.92504 | 3809 ft | 166 kts | 56° |
| 2026-05-06 15:05 | 43.30253 | 76.93804 | 3588 ft | 166 kts | 56° |
| 2026-05-06 15:06 | 43.30899 | 76.95125 | 3377 ft | 166 kts | 56° |
| 2026-05-06 15:06 | 43.31545 | 76.96446 | 3159 ft | 165 kts | 56° |
| 2026-05-06 15:06 | 43.32175 | 76.97764 | 2925 ft | 164 kts | 56° |
| 2026-05-06 15:06 | 43.32808 | 76.99044 | 2726 ft | 159 kts | 56° |
| 2026-05-06 15:07 | 43.33429 | 77.00283 | 2515 ft | 156 kts | 57° |
| 2026-05-06 15:07 | 43.34022 | 77.01521 | 2305 ft | 153 kts | 56° |
| 2026-05-06 15:07 | 43.34586 | 77.02667 | 2233 ft | 127 kts | 56° |
| 2026-05-06 15:07 | 43.34957 | 77.03428 | 2232 ft | 64 kts | 56° |
| 2026-05-06 15:08 | 43.35151 | 77.03796 | 2228 ft | 37 kts | 50° |
| 2026-05-06 15:08 | 43.35300 | 77.03949 | 2227 ft | 26 kts | 24° |
| 2026-05-06 15:08 | 43.35427 | 77.03976 | 2228 ft | 7 kts | 319° |
| 2026-05-06 15:08 | 43.35430 | 77.03919 | 2228 ft | 7 kts | 236° |
| 2026-05-06 15:09 | 43.35405 | 77.03868 | 2229 ft | 6 kts | 236° |
| 2026-05-06 15:09 | 43.35376 | 77.03813 | 2231 ft | 8 kts | 234° |
| 2026-05-06 15:09 | 43.35336 | 77.03734 | 2232 ft | 12 kts | 235° |
| 2026-05-06 15:09 | 43.35281 | 77.03626 | 2232 ft | 16 kts | 235° |
| 2026-05-06 15:10 | 43.35214 | 77.03493 | 2234 ft | 18 kts | 235° |
| 2026-05-06 15:10 | 43.35139 | 77.03343 | 2234 ft | 21 kts | 235° |
| 2026-05-06 15:10 | 43.35051 | 77.03167 | 2234 ft | 23 kts | 236° |
| 2026-05-06 15:10 | 43.34953 | 77.02967 | 2232 ft | 26 kts | 236° |
| 2026-05-06 15:11 | 43.34845 | 77.02751 | 2231 ft | 27 kts | 236° |
| 2026-05-06 15:11 | 43.34773 | 77.02577 | 2233 ft | 19 kts | 258° |
| 2026-05-06 15:11 | 43.34773 | 77.02405 | 2231 ft | 20 kts | 274° |
| 2026-05-06 15:11 | 43.34780 | 77.02251 | 2227 ft | 13 kts | 273° |
| 2026-05-06 15:12 | 43.34787 | 77.02109 | 2224 ft | 17 kts | 274° |
| 2026-05-06 15:12 | 43.34796 | 77.01932 | 2225 ft | 20 kts | 274° |
| 2026-05-06 15:12 | 43.34805 | 77.01751 | 2225 ft | 19 kts | 274° |
| 2026-05-06 15:12 | 43.34815 | 77.01561 | 2223 ft | 13 kts | 274° |
| 2026-05-06 15:13 | 43.34797 | 77.01429 | 2222 ft | 14 kts | 244° |
| 2026-05-06 15:13 | 43.34734 | 77.01407 | 2223 ft | 11 kts | 165° |
| 2026-05-06 15:13 | 43.34712 | 77.01395 | 2223 ft | 4 kts | 224° |
| 2026-05-06 15:13 | 43.34692 | 77.01348 | 2222 ft | 7 kts | 246° |
| 2026-05-06 15:14 | 43.34684 | 77.01322 | 2223 ft | 0 kts | 246° |
| 2026-05-06 15:14 | 43.34683 | 77.01319 | 2222 ft | 0 kts | 246° |
| 2026-05-06 15:14 | 43.34682 | 77.01317 | 2222 ft | 0 kts | 246° |